createdAt,value
2023-02-22T00:02:42.123Z,49.30
2023-02-22T00:05:17.226Z,42.92
2023-02-22T00:07:45.119Z,46.13
2023-02-22T00:10:23.081Z,42.42
2023-02-22T00:13:00.389Z,46.90
2023-02-22T00:15:30.265Z,40.47
2023-02-22T00:18:00.319Z,48.15
2023-02-22T00:20:30.936Z,39.40
2023-02-22T00:23:02.098Z,39.72
2023-02-22T00:25:36.104Z,44.50
2023-02-22T00:28:05.306Z,43.65
2023-02-22T00:30:34.225Z,45.88
2023-02-22T00:33:02.397Z,47.08
2023-02-22T00:35:34.157Z,48.67
2023-02-22T00:38:04.579Z,48.78
2023-02-22T00:40:36.266Z,45.75
2023-02-22T00:43:07.861Z,44.47
2023-02-22T00:45:37.088Z,43.85
2023-02-22T00:48:06.931Z,57.47
2023-02-22T00:50:35.165Z,48.13
2023-02-22T00:53:08.408Z,43.85
2023-02-22T00:55:41.409Z,47.92
2023-02-22T00:58:16.810Z,43.90
2023-02-22T01:00:48.038Z,48.85
2023-02-22T01:03:18.808Z,42.28
2023-02-22T01:05:50.627Z,48.47
2023-02-22T01:08:33.152Z,50.80
2023-02-22T01:11:00.522Z,45.30
2023-02-22T01:13:50.918Z,52.22
2023-02-22T01:16:33.772Z,49.45
2023-02-22T01:19:14.729Z,50.42
2023-02-22T01:21:45.538Z,47.53
2023-02-22T01:24:34.057Z,39.00
2023-02-22T01:27:04.993Z,48.40
2023-02-22T01:32:21.094Z,40.67
2023-02-22T01:34:49.838Z,43.53
2023-02-22T01:37:27.795Z,43.58
2023-02-22T01:40:10.153Z,49.63
2023-02-22T01:42:41.309Z,45.45
2023-02-22T01:45:30.682Z,46.22
2023-02-22T01:48:22.606Z,43.20
2023-02-22T01:51:13.038Z,44.50
2023-02-22T01:54:09.639Z,42.75
2023-02-22T01:56:40.816Z,45.65
2023-02-22T02:02:25.447Z,46.22
2023-02-22T02:04:56.690Z,53.35
2023-02-22T02:07:25.076Z,38.92
2023-02-22T02:10:00.455Z,41.90
2023-02-22T02:12:34.594Z,43.60
2023-02-22T02:15:18.618Z,41.28
2023-02-22T02:17:47.682Z,42.90
2023-02-22T02:20:24.304Z,39.85
2023-02-22T02:23:30.044Z,38.60
2023-02-22T02:26:15.413Z,41.13
2023-02-22T02:28:42.757Z,39.47
2023-02-22T02:31:37.196Z,42.38
2023-02-22T02:34:33.376Z,45.75
2023-02-22T02:37:11.986Z,46.05
2023-02-22T02:39:53.846Z,40.75
2023-02-22T02:42:28.189Z,41.80
2023-02-22T02:45:10.278Z,38.65
2023-02-22T02:47:55.964Z,40.85
2023-02-22T02:50:46.453Z,41.90
2023-02-22T02:53:17.392Z,40.40
2023-02-22T02:55:50.234Z,44.17
2023-02-22T02:58:23.552Z,43.28
2023-02-22T03:00:57.497Z,39.83
2023-02-22T03:03:40.908Z,45.63
2023-02-22T03:06:33.164Z,38.97
2023-02-22T03:09:43.782Z,40.13
2023-02-22T03:12:32.829Z,37.55
2023-02-22T03:15:47.238Z,40.53
2023-02-22T03:18:33.611Z,44.28
2023-02-22T03:21:24.224Z,42.38
2023-02-22T03:24:27.185Z,38.58
2023-02-22T03:27:06.294Z,44.27
2023-02-22T03:29:44.742Z,33.97
2023-02-22T03:32:20.746Z,36.33
2023-02-22T03:34:57.097Z,36.13
2023-02-22T03:37:34.259Z,35.88
2023-02-22T03:40:14.626Z,34.85
2023-02-22T03:42:55.269Z,33.83
2023-02-22T03:45:29.167Z,38.17
2023-02-22T03:48:14.717Z,38.45
2023-02-22T03:50:49.302Z,37.03
2023-02-22T03:53:26.292Z,39.22
2023-02-22T03:55:59.429Z,42.15
2023-02-22T03:58:33.192Z,42.95
2023-02-22T04:01:00.587Z,41.17
2023-02-22T04:03:29.068Z,50.13
2023-02-22T04:05:56.405Z,45.58
2023-02-22T04:08:24.682Z,46.67
2023-02-22T04:10:52.097Z,41.33
2023-02-22T04:13:22.684Z,42.33
2023-02-22T04:15:54.257Z,38.53
2023-02-22T04:18:26.940Z,44.67
2023-02-22T04:20:57.016Z,39.83
2023-02-22T04:23:44.467Z,41.47
2023-02-22T04:26:12.568Z,39.63
2023-02-22T04:28:40.350Z,41.80
2023-02-22T04:31:17.631Z,47.08
2023-02-22T04:33:45.446Z,47.35
2023-02-22T04:36:16.784Z,42.67
2023-02-22T04:38:47.401Z,52.90
2023-02-22T04:41:15.028Z,41.85
2023-02-22T04:43:42.547Z,38.20
2023-02-22T04:46:19.415Z,52.50
2023-02-22T04:48:46.705Z,48.70
2023-02-22T04:51:16.443Z,48.55
2023-02-22T04:54:04.360Z,46.10
2023-02-22T04:56:47.125Z,42.95
2023-02-22T04:59:19.764Z,57.28
2023-02-22T05:01:54.214Z,49.63
2023-02-22T05:04:23.756Z,50.60
2023-02-22T05:06:56.749Z,52.20
2023-02-22T05:09:37.066Z,52.90
2023-02-22T05:12:04.924Z,54.83
2023-02-22T05:14:32.178Z,55.15
2023-02-22T05:16:59.786Z,63.60
2023-02-22T05:19:27.160Z,65.43
2023-02-22T05:22:06.523Z,60.70
2023-02-22T05:24:38.307Z,64.20
2023-02-22T05:27:07.996Z,71.10
2023-02-22T05:29:41.945Z,64.88
2023-02-22T05:32:09.276Z,67.82
2023-02-22T05:34:51.684Z,69.72
2023-02-22T05:37:28.872Z,65.45
2023-02-22T05:40:01.822Z,69.55
2023-02-22T05:42:29.158Z,62.63
2023-02-22T05:45:10.761Z,73.70
2023-02-22T05:47:49.580Z,66.22
2023-02-22T05:53:09.207Z,62.58
2023-02-22T05:55:42.346Z,70.50
2023-02-22T05:58:12.892Z,64.97
2023-02-22T06:00:47.135Z,69.68
2023-02-22T06:03:39.559Z,65.15
2023-02-22T06:06:15.683Z,70.95
2023-02-22T06:08:46.515Z,66.22
2023-02-22T06:11:17.238Z,68.47
2023-02-22T06:13:54.107Z,72.93
2023-02-22T06:16:27.774Z,69.72
2023-02-22T06:21:28.169Z,66.22
2023-02-22T06:24:02.861Z,68.40
2023-02-22T06:26:55.753Z,66.35
2023-02-22T06:29:24.572Z,67.10
2023-02-22T06:31:52.299Z,75.43
2023-02-22T06:34:28.369Z,73.32
2023-02-22T06:37:00.856Z,73.28
2023-02-22T06:39:35.449Z,69.90
2023-02-22T06:42:10.460Z,67.47
2023-02-22T06:44:37.643Z,69.82
2023-02-22T06:47:10.601Z,72.53
2023-02-22T06:49:37.854Z,77.32
2023-02-22T06:52:07.018Z,76.22
2023-02-22T06:54:40.019Z,73.47
2023-02-22T06:57:10.413Z,69.47
2023-02-22T06:59:43.109Z,71.55
2023-02-22T07:02:24.022Z,71.77
2023-02-22T07:05:03.374Z,76.00
2023-02-22T07:07:30.614Z,74.68
2023-02-22T07:12:43.221Z,73.53
2023-02-22T07:15:26.060Z,72.63
2023-02-22T07:18:11.482Z,73.75
2023-02-22T07:20:44.559Z,79.45
2023-02-22T07:23:23.295Z,74.20
2023-02-22T07:28:43.589Z,65.30
2023-02-22T07:31:11.851Z,75.43
2023-02-22T07:33:41.941Z,69.05
2023-02-22T07:36:13.977Z,66.78
2023-02-22T07:38:41.286Z,78.53
2023-02-22T07:41:11.706Z,76.45
2023-02-22T07:43:48.503Z,71.72
2023-02-22T07:46:41.972Z,74.20
2023-02-22T07:49:15.155Z,72.47
2023-02-22T07:51:42.737Z,67.60
2023-02-22T07:54:10.299Z,72.18
2023-02-22T07:56:48.430Z,77.30
2023-02-22T07:59:20.189Z,65.82
2023-02-22T08:02:09.839Z,66.20
2023-02-22T08:04:37.689Z,68.10
2023-02-22T08:07:06.401Z,74.05
2023-02-22T08:09:39.552Z,71.05
2023-02-22T08:12:11.830Z,66.38
2023-02-22T08:14:39.953Z,72.70
2023-02-22T08:17:09.007Z,63.88
2023-02-22T08:19:37.342Z,68.57
2023-02-22T08:22:04.860Z,69.38
2023-02-22T08:27:14.843Z,60.65
2023-02-22T08:29:42.274Z,66.32
2023-02-22T08:32:11.444Z,63.28
2023-02-22T08:34:38.727Z,70.20
2023-02-22T08:37:06.062Z,62.72
2023-02-22T08:39:45.126Z,70.68
2023-02-22T08:42:19.211Z,56.63
2023-02-22T08:44:50.199Z,65.82
2023-02-22T08:47:28.269Z,62.00
2023-02-22T08:50:01.626Z,58.90
2023-02-22T08:52:37.002Z,65.38
2023-02-22T08:55:11.037Z,57.63
2023-02-22T08:57:48.308Z,55.15
2023-02-22T09:00:40.452Z,57.20
2023-02-22T09:03:23.016Z,58.28
2023-02-22T09:05:59.204Z,62.00
2023-02-22T09:08:34.539Z,54.22
2023-02-22T09:13:53.712Z,54.58
2023-02-22T09:16:26.111Z,57.33
2023-02-22T09:19:04.273Z,54.67
2023-02-22T09:21:42.857Z,56.45
2023-02-22T09:24:23.666Z,58.00
2023-02-22T09:27:03.945Z,47.92
2023-02-22T09:29:42.818Z,45.25
2023-02-22T09:32:47.131Z,42.95
2023-02-22T09:35:23.123Z,54.50
2023-02-22T09:38:08.530Z,38.33
2023-02-22T09:41:01.215Z,40.78
2023-02-22T09:44:13.691Z,42.42
2023-02-22T09:46:57.424Z,45.05
2023-02-22T09:53:28.837Z,28.42
2023-02-22T09:56:26.764Z,39.75
2023-02-22T09:59:04.102Z,35.85
2023-02-22T10:01:43.677Z,33.90
2023-02-22T10:07:29.055Z,24.48
2023-02-22T10:10:15.275Z,20.42
2023-02-22T10:13:22.334Z,21.27
2023-02-22T10:16:07.562Z,21.60
2023-02-22T10:19:14.410Z,26.25
2023-02-22T10:22:32.974Z,26.05
2023-02-22T10:25:24.825Z,25.88
2023-02-22T10:28:21.298Z,32.80
2023-02-22T10:31:08.583Z,30.52
2023-02-22T10:33:55.809Z,25.33
2023-02-22T10:36:48.424Z,26.45
2023-02-22T10:39:36.924Z,20.38
2023-02-22T10:42:34.244Z,29.75
2023-02-22T10:45:34.776Z,23.92
2023-02-22T10:48:18.781Z,29.15
2023-02-22T10:56:57.272Z,24.13
2023-02-22T10:59:36.462Z,28.52
2023-02-22T11:02:15.711Z,32.72
2023-02-22T11:05:07.019Z,26.33
2023-02-22T11:07:48.727Z,26.40
2023-02-22T11:10:51.304Z,23.42
2023-02-22T11:13:45.284Z,26.45
2023-02-22T11:16:36.875Z,21.00
2023-02-22T11:19:26.793Z,33.97
2023-02-22T11:22:19.859Z,23.33
2023-02-22T11:25:07.737Z,26.00
2023-02-22T11:28:03.267Z,21.75
2023-02-22T11:30:36.409Z,23.58
2023-02-22T11:33:33.684Z,29.80
2023-02-22T11:36:11.384Z,30.05
2023-02-22T11:39:00.543Z,26.95
2023-02-22T11:41:36.162Z,27.35
2023-02-22T11:44:32.844Z,27.20
2023-02-22T11:47:07.454Z,23.98
2023-02-22T11:53:13.547Z,26.25
2023-02-22T11:56:40.730Z,33.40
2023-02-22T11:59:34.858Z,27.08
2023-02-22T12:03:01.133Z,26.42
2023-02-22T12:08:54.063Z,29.40
2023-02-22T12:11:43.516Z,22.40
2023-02-22T12:14:39.220Z,24.45
2023-02-22T12:17:21.910Z,24.15
2023-02-22T12:23:27.473Z,20.70
2023-02-22T12:26:11.717Z,20.30
2023-02-22T12:29:09.270Z,27.45
2023-02-22T12:31:38.836Z,19.70
2023-02-22T12:34:40.269Z,16.75
2023-02-22T12:37:19.360Z,18.55
2023-02-22T12:40:27.946Z,23.60
2023-02-22T12:43:34.630Z,18.52
2023-02-22T12:46:21.667Z,25.40
2023-02-22T12:49:38.514Z,21.13
2023-02-22T12:52:50.886Z,20.23
2023-02-22T12:59:04.195Z,20.55
2023-02-22T13:01:51.216Z,15.73
2023-02-22T13:04:21.306Z,19.42
2023-02-22T13:07:27.628Z,22.02
2023-02-22T13:10:31.389Z,16.00
2023-02-22T13:13:39.663Z,23.20
2023-02-22T13:16:25.508Z,20.15
2023-02-22T13:19:17.795Z,16.27
2023-02-22T13:22:06.812Z,19.52
2023-02-22T13:24:57.226Z,20.13
2023-02-22T13:27:37.628Z,21.02
2023-02-22T13:30:36.097Z,24.38
2023-02-22T13:36:33.820Z,17.67
2023-02-22T13:39:36.352Z,21.98
2023-02-22T13:42:43.932Z,22.45
2023-02-22T13:45:34.373Z,14.32
2023-02-22T13:48:37.618Z,21.20
2023-02-22T13:51:54.267Z,20.67
2023-02-22T13:54:56.883Z,20.17
2023-02-22T13:58:07.266Z,15.73
2023-02-22T14:00:54.374Z,19.20
2023-02-22T14:03:44.328Z,19.52
2023-02-22T14:06:45.658Z,13.77
2023-02-22T14:09:54.929Z,15.77
2023-02-22T14:15:29.952Z,13.88
2023-02-22T14:18:21.737Z,16.08
2023-02-22T14:21:26.784Z,13.52
2023-02-22T14:24:26.119Z,14.77
2023-02-22T14:27:18.672Z,15.60
2023-02-22T14:30:03.138Z,14.20
2023-02-22T14:32:42.294Z,16.45
2023-02-22T14:35:27.418Z,16.60
2023-02-22T14:38:08.075Z,18.50
2023-02-22T14:49:26.423Z,15.05
2023-02-22T14:52:14.441Z,23.90
2023-02-22T14:55:55.778Z,16.23
2023-02-22T14:58:38.519Z,16.60
2023-02-22T15:01:55.215Z,15.80
2023-02-22T15:04:35.590Z,20.05
2023-02-22T15:07:37.265Z,22.40
2023-02-22T15:10:30.810Z,17.98
2023-02-22T15:16:08.197Z,19.58
2023-02-22T15:18:50.818Z,13.13
2023-02-22T15:21:31.934Z,17.88
2023-02-22T15:27:03.050Z,16.42
2023-02-22T15:29:52.675Z,18.73
2023-02-22T15:33:02.613Z,14.60
2023-02-22T15:35:58.208Z,18.92
2023-02-22T15:38:43.743Z,18.45
2023-02-22T15:41:28.171Z,19.52
2023-02-22T15:44:22.756Z,21.48
2023-02-22T15:47:01.430Z,15.63
2023-02-22T15:49:48.467Z,19.38
2023-02-22T15:52:42.111Z,14.48
2023-02-22T15:55:31.501Z,14.10
2023-02-22T15:58:36.651Z,21.30
2023-02-22T16:01:19.230Z,18.63
2023-02-22T16:03:56.891Z,18.20
2023-02-22T16:06:39.038Z,17.27
2023-02-22T16:09:36.405Z,26.80
2023-02-22T16:12:24.309Z,24.80
2023-02-22T16:14:54.739Z,23.80
2023-02-22T16:17:56.099Z,24.77
2023-02-22T16:20:36.412Z,20.75
2023-02-22T16:23:36.380Z,21.00
2023-02-22T16:26:33.521Z,22.15
2023-02-22T16:31:55.316Z,17.27
2023-02-22T16:34:26.076Z,20.02
2023-02-22T16:36:59.378Z,16.13
2023-02-22T16:39:40.840Z,17.48
2023-02-22T16:45:15.794Z,18.58
2023-02-22T16:47:59.997Z,21.63
2023-02-22T16:50:33.244Z,21.15
2023-02-22T16:53:11.304Z,14.77
2023-02-22T16:55:38.834Z,17.08
2023-02-22T16:58:25.438Z,17.48
2023-02-22T17:01:01.291Z,28.63
2023-02-22T17:03:29.788Z,18.02
2023-02-22T17:06:02.692Z,15.90
2023-02-22T17:08:52.528Z,17.95
2023-02-22T17:11:38.172Z,19.48
2023-02-22T17:17:06.936Z,19.67
2023-02-22T17:19:51.296Z,19.75
2023-02-22T17:22:27.511Z,18.17
2023-02-22T17:25:10.279Z,23.42
2023-02-22T17:27:46.539Z,19.35
2023-02-22T17:30:26.460Z,20.77
2023-02-22T17:33:03.888Z,17.50
2023-02-22T17:35:49.572Z,18.40
2023-02-22T17:38:28.188Z,19.58
2023-02-22T17:41:06.842Z,17.05
2023-02-22T17:43:47.484Z,22.55
2023-02-22T17:46:21.094Z,16.88
2023-02-22T17:55:02.436Z,14.65
2023-02-22T17:57:47.445Z,11.88
2023-02-22T18:00:35.595Z,18.35
2023-02-22T18:03:19.799Z,15.52
2023-02-22T18:06:37.202Z,12.13
2023-02-22T18:12:13.757Z,12.38
2023-02-22T18:14:53.450Z,13.50
2023-02-22T18:17:23.783Z,14.07
2023-02-22T18:19:56.530Z,11.50
2023-02-22T18:22:35.128Z,19.95
2023-02-22T18:25:16.913Z,21.63
2023-02-22T18:27:57.184Z,14.65
2023-02-22T18:30:24.985Z,12.27
2023-02-22T18:33:01.016Z,17.58
2023-02-22T18:35:37.493Z,10.90
2023-02-22T18:38:14.896Z,15.63
2023-02-22T18:40:55.429Z,14.52
2023-02-22T18:46:25.206Z,26.80
2023-02-22T18:49:08.074Z,15.77
2023-02-22T18:51:40.422Z,22.20
2023-02-22T18:54:18.567Z,13.88
2023-02-22T18:56:55.168Z,14.27
2023-02-22T18:59:26.044Z,13.77
2023-02-22T19:02:09.040Z,11.35
2023-02-22T19:04:44.523Z,13.37
2023-02-22T19:07:29.145Z,13.88
2023-02-22T19:10:07.319Z,14.25
2023-02-22T19:12:43.982Z,17.70
2023-02-22T19:15:13.277Z,13.98
2023-02-22T19:17:46.379Z,14.80
2023-02-22T19:20:13.842Z,13.43
2023-02-22T19:22:48.220Z,16.25
2023-02-22T19:25:18.479Z,27.52
2023-02-22T19:27:51.665Z,16.15
2023-02-22T19:30:21.949Z,17.35
2023-02-22T19:32:54.862Z,19.95
2023-02-22T19:35:33.331Z,18.15
2023-02-22T19:38:00.813Z,20.88
2023-02-22T19:40:32.736Z,16.33
2023-02-22T19:43:14.701Z,18.73
2023-02-22T19:45:55.122Z,20.42
2023-02-22T19:48:26.002Z,20.33
2023-02-22T19:51:02.557Z,22.92
2023-02-22T19:53:34.478Z,20.23
2023-02-22T19:56:17.534Z,18.70
2023-02-22T19:58:48.652Z,19.15
2023-02-22T20:01:28.706Z,15.25
2023-02-22T20:04:13.630Z,20.60
2023-02-22T20:07:07.327Z,20.48
2023-02-22T20:09:44.638Z,15.90
2023-02-22T20:12:37.397Z,22.98
2023-02-22T20:15:22.470Z,19.65
2023-02-22T20:17:58.477Z,29.80
2023-02-22T20:20:54.199Z,17.80
2023-02-22T20:23:40.511Z,18.17
2023-02-22T20:26:27.410Z,19.67
2023-02-22T20:29:01.288Z,21.85
2023-02-22T20:34:44.914Z,20.00
2023-02-22T20:37:16.930Z,26.77
2023-02-22T20:39:54.331Z,21.02
2023-02-22T20:42:22.758Z,20.25
2023-02-22T20:45:00.196Z,21.45
2023-02-22T20:47:39.318Z,20.15
2023-02-22T20:50:14.993Z,28.70
2023-02-22T20:52:48.901Z,27.13
2023-02-22T20:55:25.313Z,23.50
2023-02-22T20:57:57.681Z,22.42
2023-02-22T21:00:28.942Z,24.70
2023-02-22T21:05:46.804Z,24.48
2023-02-22T21:08:17.777Z,30.17
2023-02-22T21:13:30.989Z,32.47
2023-02-22T21:16:02.624Z,31.30
2023-02-22T21:18:33.730Z,26.80
2023-02-22T21:21:19.148Z,30.02
2023-02-22T21:23:55.169Z,27.63
2023-02-22T21:26:27.377Z,31.58
2023-02-22T21:29:09.483Z,30.38
2023-02-22T21:31:37.593Z,28.08
2023-02-22T21:34:07.995Z,27.23
2023-02-22T21:36:39.142Z,28.38
2023-02-22T21:39:20.918Z,25.52
2023-02-22T21:41:59.888Z,34.95
2023-02-22T21:44:30.542Z,32.17
2023-02-22T21:49:42.550Z,29.95
2023-02-22T21:52:12.789Z,33.17
2023-02-22T21:54:43.573Z,34.03
2023-02-22T21:57:15.102Z,41.22
2023-02-22T21:59:51.424Z,34.30
2023-02-22T22:02:40.291Z,35.47
2023-02-22T22:08:07.534Z,32.42
2023-02-22T22:10:40.181Z,37.00
2023-02-22T22:13:20.646Z,48.10
2023-02-22T22:16:34.575Z,33.78
2023-02-22T22:19:33.900Z,37.85
2023-02-22T22:22:08.473Z,26.52
2023-02-22T22:24:44.643Z,30.58
2023-02-22T22:27:15.204Z,33.45
2023-02-22T22:29:50.906Z,32.75
2023-02-22T22:32:44.907Z,25.58
2023-02-22T22:35:18.207Z,25.25
2023-02-22T22:37:56.995Z,33.55
2023-02-22T22:40:26.091Z,32.45
2023-02-22T22:42:53.655Z,29.98
2023-02-22T22:45:31.508Z,30.20
2023-02-22T22:48:09.923Z,26.75
2023-02-22T22:50:41.811Z,29.60
2023-02-22T22:55:53.237Z,37.53
2023-02-22T22:58:28.786Z,35.10
2023-02-22T23:01:02.836Z,43.65
2023-02-22T23:03:43.667Z,32.88
2023-02-22T23:06:15.811Z,34.58
2023-02-22T23:08:45.782Z,33.88
2023-02-22T23:11:13.567Z,44.67
2023-02-22T23:13:44.012Z,43.15
2023-02-22T23:21:45.360Z,53.03
2023-02-22T23:24:23.671Z,34.30
2023-02-22T23:27:17.529Z,38.05
2023-02-22T23:29:49.865Z,42.58
2023-02-22T23:32:24.967Z,38.38
2023-02-22T23:35:13.135Z,45.28
2023-02-22T23:38:17.867Z,48.50
2023-02-22T23:41:07.689Z,38.40
2023-02-22T23:43:44.644Z,39.17
2023-02-22T23:46:33.387Z,41.40
2023-02-22T23:49:02.639Z,40.37
2023-02-22T23:51:39.671Z,39.08
2023-02-22T23:54:12.680Z,44.40
2023-02-22T23:56:56.009Z,46.75
2023-02-22T23:59:32.823Z,37.42
